createdAt,value
2022-12-19T00:00:37.846Z,101478.97
2022-12-19T00:03:06.225Z,101457.25
2022-12-19T00:05:39.787Z,101457.00
2022-12-19T00:08:16.970Z,101498.28
2022-12-19T00:10:54.882Z,101462.72
2022-12-19T00:13:23.332Z,101441.16
2022-12-19T00:15:51.678Z,101456.25
2022-12-19T00:18:20.332Z,101412.63
2022-12-19T00:20:58.853Z,101383.72
2022-12-19T00:23:28.910Z,101453.16
2022-12-19T00:25:57.470Z,101439.53
2022-12-19T00:28:27.164Z,101439.75
2022-12-19T00:30:55.422Z,101424.88
2022-12-19T00:33:24.943Z,101419.56
2022-12-19T00:36:00.421Z,101424.84
2022-12-19T00:38:30.008Z,101422.66
2022-12-19T00:41:08.505Z,101404.16
2022-12-19T00:43:37.592Z,101415.78
2022-12-19T00:46:09.800Z,101418.78
2022-12-19T00:48:38.264Z,101421.63
2022-12-19T00:51:11.911Z,101376.91
2022-12-19T00:53:44.189Z,101398.09
2022-12-19T00:56:16.381Z,101388.78
2022-12-19T00:58:47.252Z,101399.31
2022-12-19T01:01:20.371Z,101390.72
2022-12-19T01:04:19.137Z,101376.06
2022-12-19T01:06:39.535Z,101368.53
2022-12-19T01:09:09.874Z,101360.06
2022-12-19T01:11:55.747Z,101391.81
2022-12-19T01:14:24.784Z,101355.34
2022-12-19T01:16:53.532Z,101362.91
2022-12-19T01:19:21.929Z,101353.13
2022-12-19T01:21:51.603Z,101389.22
2022-12-19T01:24:20.701Z,101365.75
2022-12-19T01:26:51.236Z,101348.41
2022-12-19T01:29:19.643Z,101346.72
2022-12-19T01:31:49.397Z,101346.63
2022-12-19T01:34:17.775Z,101346.81
2022-12-19T01:36:46.093Z,101345.94
2022-12-19T01:39:15.749Z,101218.53
2022-12-19T01:41:44.068Z,101338.59
2022-12-19T01:44:12.379Z,101349.25
2022-12-19T01:46:45.350Z,101321.53
2022-12-19T01:49:17.907Z,101332.06
2022-12-19T01:51:52.311Z,101336.47
2022-12-19T01:54:27.089Z,101326.28
2022-12-19T01:57:00.076Z,101315.88
2022-12-19T01:59:35.467Z,101320.31
2022-12-19T02:02:11.802Z,101323.78
2022-12-19T02:04:41.977Z,101301.59
2022-12-19T02:07:15.746Z,101318.72
2022-12-19T02:09:51.923Z,101310.75
2022-12-19T02:12:30.855Z,101305.56
2022-12-19T02:15:03.112Z,101292.50
2022-12-19T02:17:48.793Z,101281.41
2022-12-19T02:21:04.314Z,101266.31
2022-12-19T02:24:13.374Z,101262.84
2022-12-19T02:27:15.602Z,101264.63
2022-12-19T02:30:10.349Z,101271.72
2022-12-19T02:32:57.812Z,101267.41
2022-12-19T02:35:36.336Z,101260.63
2022-12-19T02:38:16.584Z,101228.88
2022-12-19T02:40:55.561Z,101237.44
2022-12-19T02:43:29.221Z,101266.31
2022-12-19T02:45:58.978Z,101220.50
2022-12-19T02:48:29.648Z,101236.59
2022-12-19T02:50:59.651Z,101166.72
2022-12-19T02:53:27.980Z,101247.53
2022-12-19T02:56:26.449Z,101225.56
2022-12-19T02:59:19.878Z,101233.78
2022-12-19T03:01:54.351Z,101219.50
2022-12-19T03:04:38.908Z,101230.50
2022-12-19T03:07:15.869Z,101235.94
2022-12-19T03:09:53.157Z,101224.72
2022-12-19T03:12:28.243Z,101221.22
2022-12-19T03:14:59.829Z,101211.63
2022-12-19T03:17:29.283Z,101215.34
2022-12-19T03:19:59.836Z,101226.91
2022-12-19T03:22:27.977Z,101221.84
2022-12-19T03:24:56.306Z,101133.38
2022-12-19T03:27:30.562Z,101215.81
2022-12-19T03:30:06.113Z,101243.09
2022-12-19T03:32:37.968Z,101205.41
2022-12-19T03:35:14.129Z,101240.63
2022-12-19T03:37:44.103Z,101198.59
2022-12-19T03:40:18.185Z,101199.56
2022-12-19T03:43:06.744Z,101209.19
2022-12-19T03:45:46.872Z,101198.66
2022-12-19T03:48:21.392Z,101205.78
2022-12-19T03:51:10.767Z,101208.47
2022-12-19T03:53:49.619Z,101213.84
2022-12-19T03:56:27.541Z,101201.44
2022-12-19T03:59:02.672Z,101173.97
2022-12-19T04:01:35.392Z,101197.25
2022-12-19T04:04:06.293Z,101209.63
2022-12-19T04:06:37.304Z,101198.19
2022-12-19T04:09:06.710Z,101204.47
2022-12-19T04:11:42.740Z,101207.09
2022-12-19T04:14:17.145Z,101209.63
2022-12-19T04:16:51.909Z,101209.81
2022-12-19T04:19:27.249Z,101181.81
2022-12-19T04:22:05.997Z,101194.84
2022-12-19T04:24:39.113Z,101207.22
2022-12-19T04:27:09.824Z,101171.78
2022-12-19T04:29:39.245Z,101183.63
2022-12-19T04:32:09.524Z,101204.78
2022-12-19T04:34:41.507Z,101145.72
2022-12-19T04:37:14.203Z,101191.66
2022-12-19T04:39:42.658Z,101193.44
2022-12-19T04:42:10.939Z,101209.25
2022-12-19T04:44:39.342Z,101175.94
2022-12-19T04:47:07.626Z,101197.91
2022-12-19T04:49:35.953Z,101186.53
2022-12-19T04:52:04.372Z,101187.47
2022-12-19T04:54:35.207Z,101180.47
2022-12-19T04:57:03.543Z,101174.38
2022-12-19T04:59:32.480Z,101196.38
2022-12-19T05:02:01.033Z,101171.84
2022-12-19T05:04:29.431Z,101173.59
2022-12-19T05:06:57.743Z,101163.94
2022-12-19T05:09:27.297Z,101161.34
2022-12-19T05:11:56.953Z,101159.56
2022-12-19T05:14:25.482Z,101163.25
2022-12-19T05:16:57.344Z,101148.16
2022-12-19T05:19:29.137Z,101171.13
2022-12-19T05:21:57.464Z,101161.50
2022-12-19T05:24:25.891Z,101162.44
2022-12-19T05:26:54.228Z,101165.09
2022-12-19T05:29:24.075Z,101149.06
2022-12-19T05:31:52.345Z,101172.16
2022-12-19T05:34:20.875Z,101189.81
2022-12-19T05:36:49.246Z,101160.00
2022-12-19T05:39:17.785Z,101173.19
2022-12-19T05:41:48.943Z,101141.44
2022-12-19T05:44:18.504Z,101168.84
2022-12-19T05:46:48.273Z,101162.66
2022-12-19T05:49:16.838Z,101181.97
2022-12-19T05:51:48.188Z,101129.09
2022-12-19T05:54:16.785Z,101162.75
2022-12-19T05:56:45.051Z,101170.69
2022-12-19T05:59:13.436Z,101174.19
2022-12-19T06:01:41.717Z,101136.31
2022-12-19T06:04:11.515Z,101139.81
2022-12-19T06:06:39.775Z,101161.06
2022-12-19T06:09:08.262Z,101178.75
2022-12-19T06:11:36.513Z,101095.72
2022-12-19T06:14:04.887Z,101179.56
2022-12-19T06:16:33.168Z,101156.72
2022-12-19T06:19:01.557Z,101148.03
2022-12-19T06:21:31.227Z,101145.41
2022-12-19T06:23:59.569Z,101160.38
2022-12-19T06:26:27.937Z,101177.13
2022-12-19T06:28:57.229Z,101151.50
2022-12-19T06:31:26.930Z,101167.50
2022-12-19T06:33:56.854Z,101165.75
2022-12-19T06:36:27.914Z,101060.72
2022-12-19T06:38:59.155Z,101151.66
2022-12-19T06:41:45.350Z,101162.28
2022-12-19T06:44:16.204Z,101164.94
2022-12-19T06:46:45.488Z,101163.13
2022-12-19T06:49:14.069Z,101168.44
2022-12-19T06:51:42.766Z,101161.44
2022-12-19T06:54:13.277Z,101181.69
2022-12-19T06:56:43.910Z,101171.16
2022-12-19T06:59:15.948Z,101178.22
2022-12-19T07:01:58.601Z,101187.81
2022-12-19T07:04:32.638Z,101153.53
2022-12-19T07:07:01.831Z,101145.56
2022-12-19T07:09:33.896Z,101083.66
2022-12-19T07:12:03.165Z,101196.72
2022-12-19T07:14:31.544Z,101189.72
2022-12-19T07:17:02.110Z,101168.63
2022-12-19T07:19:32.218Z,101180.00
2022-12-19T07:22:02.085Z,101199.44
2022-12-19T07:24:32.161Z,101200.34
2022-12-19T07:27:00.569Z,101204.78
2022-12-19T07:29:28.913Z,101216.22
2022-12-19T07:31:57.300Z,101204.84
2022-12-19T07:34:25.674Z,101211.81
2022-12-19T07:36:53.930Z,101211.88
2022-12-19T07:39:22.924Z,101188.88
2022-12-19T07:41:52.574Z,101231.19
2022-12-19T07:44:31.492Z,101209.19
2022-12-19T07:46:59.750Z,101126.00
2022-12-19T07:49:27.989Z,101224.19
2022-12-19T07:51:56.375Z,101218.06
2022-12-19T07:54:24.678Z,101225.97
2022-12-19T07:56:54.439Z,101207.47
2022-12-19T07:59:28.912Z,101237.44
2022-12-19T08:01:58.945Z,101232.16
2022-12-19T08:04:27.711Z,101239.22
2022-12-19T08:06:56.114Z,101227.78
2022-12-19T08:09:27.647Z,101233.06
2022-12-19T08:11:57.782Z,101248.03
2022-12-19T08:14:26.134Z,101239.22
2022-12-19T08:17:19.702Z,101248.03
2022-12-19T08:19:42.898Z,101244.50
2022-12-19T08:22:11.242Z,101236.47
2022-12-19T08:24:39.543Z,101254.16
2022-12-19T08:27:09.240Z,101247.13
2022-12-19T08:29:37.623Z,101243.59
2022-12-19T08:32:06.305Z,101238.38
2022-12-19T08:34:34.797Z,101227.78
2022-12-19T08:37:03.054Z,101234.06
2022-12-19T08:39:31.441Z,101240.19
2022-12-19T08:41:59.838Z,101252.47
2022-12-19T08:44:29.538Z,101251.56
2022-12-19T08:46:57.904Z,101261.28
2022-12-19T08:49:26.548Z,101267.44
2022-12-19T08:51:54.865Z,101256.00
2022-12-19T08:54:23.213Z,101182.72
2022-12-19T08:56:51.982Z,101274.53
2022-12-19T08:59:25.579Z,101267.50
2022-12-19T09:02:01.687Z,101284.19
2022-12-19T09:06:01.889Z,101241.97
2022-12-19T09:07:19.703Z,101255.28
2022-12-19T09:09:48.058Z,101241.13
2022-12-19T09:12:17.488Z,101268.47
2022-12-19T09:14:46.267Z,101274.63
2022-12-19T09:17:16.042Z,101270.25
2022-12-19T09:19:47.638Z,101255.28
2022-12-19T09:22:17.711Z,101271.09
2022-12-19T09:24:49.124Z,101265.84
2022-12-19T09:27:17.555Z,101261.50
2022-12-19T09:29:46.045Z,101279.94
2022-12-19T09:32:15.753Z,101256.06
2022-12-19T09:34:44.053Z,101183.59
2022-12-19T09:37:16.676Z,101258.72
2022-12-19T09:39:46.862Z,101242.94
2022-12-19T09:42:30.036Z,101288.75
2022-12-19T09:45:31.252Z,101286.16
2022-12-19T09:48:05.758Z,101268.56
2022-12-19T09:50:47.772Z,101279.13
2022-12-19T09:53:23.121Z,101294.97
2022-12-19T09:55:54.900Z,101273.84
2022-12-19T09:58:37.209Z,101258.94
2022-12-19T10:01:17.138Z,101271.22
2022-12-19T10:03:55.166Z,101297.66
2022-12-19T10:07:07.007Z,101284.41
2022-12-19T10:10:54.710Z,101290.59
2022-12-19T10:12:43.075Z,101300.34
2022-12-19T10:15:22.438Z,101266.91
2022-12-19T10:18:16.627Z,101259.84
2022-12-19T10:20:51.452Z,101295.91
2022-12-19T10:23:50.461Z,101288.91
2022-12-19T10:26:21.853Z,101292.44
2022-12-19T10:29:30.067Z,101283.69
2022-12-19T10:32:05.297Z,101287.25
2022-12-19T10:34:39.812Z,101286.38
2022-12-19T10:37:25.729Z,101232.56
2022-12-19T10:40:11.241Z,101244.13
2022-12-19T10:42:51.917Z,101254.72
2022-12-19T10:45:23.371Z,101252.97
2022-12-19T10:47:57.404Z,101268.00
2022-12-19T10:50:29.510Z,101256.56
2022-12-19T10:53:11.188Z,101269.84
2022-12-19T10:55:44.919Z,101238.94
2022-12-19T10:58:22.857Z,101157.78
2022-12-19T11:01:06.939Z,101229.28
2022-12-19T11:03:36.170Z,101256.66
2022-12-19T11:06:06.249Z,101270.75
2022-12-19T11:08:38.082Z,101237.28
2022-12-19T11:13:11.905Z,101265.47
2022-12-19T11:19:17.854Z,101231.94
2022-12-19T11:20:39.179Z,101267.25
2022-12-19T11:29:18.200Z,101296.31
2022-12-19T11:29:34.804Z,101224.06
2022-12-19T11:29:34.919Z,101254.09
2022-12-19T11:30:59.587Z,101239.03
2022-12-19T11:32:35.825Z,101249.63
2022-12-19T11:34:51.433Z,101247.81
2022-12-19T11:37:26.851Z,101262.84
2022-12-19T11:40:01.001Z,101284.84
2022-12-19T11:42:36.545Z,101250.50
2022-12-19T11:45:14.503Z,101202.94
2022-12-19T11:47:49.765Z,101239.06
2022-12-19T11:50:24.173Z,101230.22
2022-12-19T11:53:05.139Z,101240.78
2022-12-19T11:55:45.073Z,101224.06
2022-12-19T11:58:15.638Z,101220.53
2022-12-19T12:00:54.247Z,101189.63
2022-12-19T12:04:01.908Z,101194.94
2022-12-19T12:06:35.646Z,101216.97
2022-12-19T12:11:42.620Z,101208.16
2022-12-19T12:19:08.584Z,101209.06
2022-12-19T12:26:37.387Z,101199.41
2022-12-19T12:31:00.316Z,101198.50
2022-12-19T12:31:08.448Z,101177.31
2022-12-19T12:31:39.471Z,101187.94
2022-12-19T12:31:45.110Z,101188.81
2022-12-19T12:31:49.683Z,101183.53
2022-12-19T12:35:38.337Z,101209.09
2022-12-19T12:39:44.088Z,101173.88
2022-12-19T12:42:29.128Z,101177.41
2022-12-19T12:45:00.287Z,101157.13
2022-12-19T12:47:30.313Z,101170.38
2022-12-19T12:50:02.955Z,101166.00
2022-12-19T12:52:37.154Z,101154.56
2022-12-19T12:55:13.816Z,101158.09
2022-12-19T12:57:42.341Z,101158.09
2022-12-19T13:00:24.842Z,101151.03
2022-12-19T13:03:03.587Z,101039.03
2022-12-19T13:05:41.521Z,101167.78
2022-12-19T13:08:38.203Z,101114.91
2022-12-19T13:11:12.200Z,101127.25
2022-12-19T13:13:53.215Z,101115.78
2022-12-19T13:16:52.907Z,101146.66
2022-12-19T13:19:28.846Z,101121.09
2022-12-19T13:22:37.954Z,101127.25
2022-12-19T13:25:52.536Z,101102.56
2022-12-19T13:28:41.742Z,101137.81
2022-12-19T13:31:23.298Z,101097.28
2022-12-19T13:34:25.125Z,101093.78
2022-12-19T13:39:47.982Z,101093.75
2022-12-19T13:40:18.463Z,101103.47
2022-12-19T13:43:18.858Z,100943.06
2022-12-19T13:45:53.853Z,101097.28
2022-12-19T13:48:32.109Z,101076.13
2022-12-19T13:51:07.147Z,101085.84
2022-12-19T13:53:36.770Z,101092.88
2022-12-19T13:56:12.905Z,101106.97
2022-12-19T13:58:48.741Z,101084.06
2022-12-19T14:01:23.270Z,101110.47
2022-12-19T14:03:55.473Z,101077.88
2022-12-19T14:06:29.040Z,101116.66
2022-12-19T14:11:26.423Z,101120.19
2022-12-19T14:13:35.644Z,101137.81
2022-12-19T14:15:12.916Z,101144.00
2022-12-19T14:17:48.793Z,101145.78
2022-12-19T14:22:02.299Z,101070.81
2022-12-19T14:23:12.362Z,101144.88
2022-12-19T14:28:18.423Z,101122.81
2022-12-19T14:28:44.597Z,101139.56
2022-12-19T14:31:19.018Z,101106.06
2022-12-19T14:36:41.718Z,101143.09
2022-12-19T14:39:18.676Z,101036.50
2022-12-19T14:42:20.447Z,101139.56
2022-12-19T14:54:15.169Z,101037.38
2022-12-19T14:54:15.865Z,101064.66
2022-12-19T14:54:28.660Z,101142.22
2022-12-19T14:57:28.971Z,101126.34
2022-12-19T15:01:09.123Z,101129.00
2022-12-19T15:03:22.913Z,101065.56
2022-12-19T15:05:51.927Z,101108.72
2022-12-19T15:09:50.576Z,101139.59
2022-12-19T15:12:06.198Z,101135.16
2022-12-19T15:14:53.787Z,101104.31
2022-12-19T15:17:28.420Z,101108.72
2022-12-19T15:19:56.846Z,101105.19
2022-12-19T15:22:25.136Z,101111.34
2022-12-19T15:24:54.263Z,101121.94
2022-12-19T15:27:24.293Z,101102.53
2022-12-19T15:29:53.057Z,101129.00
2022-12-19T15:32:21.479Z,101100.75
2022-12-19T15:34:51.644Z,101095.50
2022-12-19T15:37:20.460Z,101091.09
2022-12-19T15:39:49.009Z,101090.19
2022-12-19T15:42:24.559Z,101082.28
2022-12-19T15:44:55.763Z,101107.84
2022-12-19T15:47:32.927Z,101084.03
2022-12-19T15:50:06.702Z,101099.88
2022-12-19T15:52:35.057Z,101100.78
2022-12-19T15:55:03.350Z,101117.53
2022-12-19T15:57:37.798Z,101131.66
2022-12-19T16:00:12.865Z,101114.00
2022-12-19T16:05:30.185Z,101118.41
2022-12-19T16:07:58.989Z,101107.84
2022-12-19T16:10:27.856Z,101100.78
2022-12-19T16:12:58.536Z,101112.25
2022-12-19T16:15:29.469Z,101104.31
2022-12-19T16:17:58.660Z,101104.31
2022-12-19T16:20:30.575Z,100988.03
2022-12-19T16:22:59.377Z,101096.34
2022-12-19T16:25:35.039Z,101117.50
2022-12-19T16:28:07.326Z,101116.66
2022-12-19T16:30:36.591Z,101106.06
2022-12-19T16:33:18.674Z,101109.59
2022-12-19T16:36:04.661Z,101086.69
2022-12-19T16:38:34.349Z,100979.22
2022-12-19T16:41:02.958Z,101094.63
2022-12-19T16:43:36.945Z,101086.66
2022-12-19T16:46:08.687Z,101096.38
2022-12-19T16:48:37.085Z,101080.53
2022-12-19T16:51:05.660Z,101104.34
2022-12-19T16:53:34.537Z,101096.38
2022-12-19T16:56:04.751Z,101084.91
2022-12-19T16:58:39.618Z,101095.50
2022-12-19T17:01:11.858Z,101108.75
2022-12-19T17:03:42.787Z,101076.13
2022-12-19T17:06:13.893Z,101076.09
2022-12-19T17:08:42.458Z,101094.63
2022-12-19T17:11:20.390Z,101120.19
2022-12-19T17:13:53.237Z,101091.09
2022-12-19T17:16:21.719Z,101092.00
2022-12-19T17:18:50.222Z,101058.47
2022-12-19T17:21:21.565Z,101099.03
2022-12-19T17:23:50.301Z,101087.56
2022-12-19T17:26:19.243Z,101087.56
2022-12-19T17:28:49.377Z,101082.28
2022-12-19T17:31:23.771Z,101111.38
2022-12-19T17:33:53.036Z,101101.69
2022-12-19T17:36:26.091Z,101105.22
2022-12-19T17:38:56.115Z,101126.34
2022-12-19T17:41:25.497Z,101097.28
2022-12-19T17:43:55.230Z,101089.34
2022-12-19T17:46:25.661Z,101140.47
2022-12-19T17:48:55.239Z,101109.63
2022-12-19T17:51:24.725Z,101074.38
2022-12-19T17:53:53.045Z,101139.59
2022-12-19T17:56:22.216Z,101099.91
2022-12-19T17:58:50.752Z,101087.56
2022-12-19T18:01:24.336Z,101103.44
2022-12-19T18:03:56.105Z,101088.44
2022-12-19T18:06:24.460Z,101103.44
2022-12-19T18:08:52.801Z,101105.19
2022-12-19T18:11:23.997Z,101112.25
2022-12-19T18:13:53.562Z,101115.78
2022-12-19T18:16:27.364Z,101129.00
2022-12-19T18:18:56.444Z,101109.59
2022-12-19T18:21:25.089Z,100946.63
2022-12-19T18:23:53.617Z,101014.47
2022-12-19T18:26:22.279Z,101108.75
2022-12-19T18:28:50.602Z,101090.22
2022-12-19T18:31:25.499Z,101128.13
2022-12-19T18:34:02.038Z,101096.38
2022-12-19T18:36:41.187Z,101117.56
2022-12-19T18:39:21.035Z,101112.25
2022-12-19T18:41:50.174Z,101119.28
2022-12-19T18:44:18.734Z,101136.94
2022-12-19T18:46:50.813Z,101130.78
2022-12-19T18:49:19.892Z,101147.50
2022-12-19T18:51:50.150Z,101118.44
2022-12-19T18:54:22.511Z,101126.34
2022-12-19T18:56:55.427Z,101106.06
2022-12-19T18:59:23.965Z,101121.06
2022-12-19T19:01:55.588Z,101141.31
2022-12-19T19:04:24.126Z,101125.47
2022-12-19T19:06:55.146Z,101127.19
2022-12-19T19:09:24.110Z,101139.56
2022-12-19T19:12:34.293Z,101087.56
2022-12-19T19:15:03.116Z,101145.75
2022-12-19T19:17:32.770Z,101152.81
2022-12-19T19:20:01.417Z,101137.78
2022-12-19T19:22:33.991Z,101131.66
2022-12-19T19:25:02.530Z,101158.09
2022-12-19T19:27:30.967Z,101159.84
2022-12-19T19:30:00.251Z,101168.66
2022-12-19T19:32:28.833Z,101166.03
2022-12-19T19:34:59.613Z,101088.44
2022-12-19T19:37:28.872Z,101165.16
2022-12-19T19:39:57.268Z,101153.66
2022-12-19T19:42:25.586Z,101150.16
2022-12-19T19:44:54.025Z,101135.16
2022-12-19T19:47:27.173Z,101151.03
2022-12-19T19:49:58.325Z,101060.28
2022-12-19T19:52:26.691Z,101164.25
2022-12-19T19:54:55.108Z,101164.25
2022-12-19T19:57:23.781Z,101152.81
2022-12-19T19:59:52.559Z,101160.72
2022-12-19T20:02:24.280Z,101179.28
2022-12-19T20:04:52.794Z,101167.78
2022-12-19T20:07:25.522Z,101077.88
2022-12-19T20:09:54.786Z,101157.22
2022-12-19T20:12:26.258Z,101196.91
2022-12-19T20:14:54.706Z,101151.88
2022-12-19T20:17:23.117Z,101143.94
2022-12-19T20:19:51.612Z,101136.91
2022-12-19T20:22:20.006Z,101124.56
2022-12-19T20:24:49.766Z,101154.53
2022-12-19T20:27:20.855Z,101111.38
2022-12-19T20:29:49.151Z,101152.78
2022-12-19T20:32:17.631Z,101161.59
2022-12-19T20:34:46.715Z,101065.56
2022-12-19T20:37:16.045Z,101169.53
2022-12-19T20:39:44.864Z,101158.06
2022-12-19T20:42:14.672Z,101170.38
2022-12-19T20:44:43.014Z,101159.81
2022-12-19T20:47:11.313Z,101175.69
2022-12-19T20:49:39.973Z,101158.91
2022-12-19T20:52:08.388Z,101161.56
2022-12-19T20:54:36.976Z,101168.59
2022-12-19T20:57:05.703Z,101175.69
2022-12-19T20:59:35.482Z,101153.59
2022-12-19T21:02:03.936Z,101128.88
2022-12-19T21:04:32.567Z,101137.69
2022-12-19T21:07:01.063Z,101157.16
2022-12-19T21:09:29.519Z,101127.19
2022-12-19T21:11:58.164Z,101156.25
2022-12-19T21:14:26.457Z,101141.25
2022-12-19T21:16:56.235Z,101179.16
2022-12-19T21:19:24.719Z,101167.72
2022-12-19T21:21:53.437Z,101164.16
2022-12-19T21:24:21.996Z,101183.59
2022-12-19T21:26:57.670Z,101063.75
2022-12-19T21:29:26.816Z,101151.81
2022-12-19T21:31:56.559Z,101091.03
2022-12-19T21:34:25.186Z,101153.63
2022-12-19T21:36:53.578Z,101161.53
2022-12-19T21:39:25.538Z,101117.47
2022-12-19T21:41:53.984Z,101169.50
2022-12-19T21:44:22.273Z,101154.50
2022-12-19T21:46:50.932Z,101187.16
2022-12-19T21:49:21.095Z,101166.88
2022-12-19T21:51:49.516Z,101163.31
2022-12-19T21:54:17.942Z,101159.78
2022-12-19T21:56:49.160Z,101160.66
2022-12-19T21:59:20.583Z,101168.63
2022-12-19T22:01:49.189Z,101135.06
2022-12-19T22:04:22.041Z,101139.47
2022-12-19T22:06:52.008Z,101111.25
2022-12-19T22:09:23.419Z,101135.09
2022-12-19T22:11:51.978Z,101135.09
2022-12-19T22:14:22.655Z,101131.53
2022-12-19T22:16:51.224Z,101129.78
2022-12-19T22:19:21.805Z,101102.47
2022-12-19T22:21:50.305Z,101072.50
2022-12-19T22:24:20.086Z,101075.09
2022-12-19T22:26:48.614Z,101117.41
2022-12-19T22:29:20.501Z,101104.19
2022-12-19T22:31:50.652Z,101008.13
2022-12-19T22:34:22.544Z,101099.72
2022-12-19T22:36:52.953Z,101108.56
2022-12-19T22:39:23.063Z,101098.81
2022-12-19T22:41:52.086Z,101095.25
2022-12-19T22:44:23.172Z,101089.13
2022-12-19T22:46:52.296Z,101097.97
2022-12-19T22:49:21.965Z,101110.25
2022-12-19T22:51:50.381Z,101108.53
2022-12-19T22:54:18.769Z,101112.03
2022-12-19T22:56:47.256Z,101112.91
2022-12-19T22:59:15.580Z,101116.44
2022-12-19T23:01:44.909Z,101124.38
2022-12-19T23:04:15.741Z,101111.13
2022-12-19T23:06:45.821Z,101111.13
2022-12-19T23:09:17.709Z,101115.56
2022-12-19T23:11:50.107Z,101117.34
2022-12-19T23:14:20.906Z,101118.19
2022-12-19T23:16:49.497Z,101087.41
2022-12-19T23:19:18.639Z,101085.56
2022-12-19T23:21:48.581Z,101111.16
2022-12-19T23:24:17.137Z,101089.97
2022-12-19T23:26:45.836Z,101106.72
2022-12-19T23:29:16.462Z,101090.84
2022-12-19T23:31:47.322Z,101102.31
2022-12-19T23:34:16.909Z,101069.66
2022-12-19T23:39:35.758Z,101044.06
2022-12-19T23:42:04.225Z,101081.06
2022-12-19T23:44:32.680Z,101044.94
2022-12-19T23:47:03.409Z,101076.66
2022-12-19T23:49:33.431Z,101044.09
2022-12-19T23:52:03.255Z,101057.19
2022-12-19T23:54:31.595Z,101072.22
2022-12-19T23:56:59.850Z,101062.50
2022-12-19T23:59:28.485Z,101047.56
